Airbus A380 da Korean arranha a pista de Tóquio com o motor! (com foto)

Data:

https://arabaviationsummit.net/spot_img

Um Airbus A380-800, da Korean Air  com o registo HL7611, que estava a fazer o voo desde Seul na Coreia do Sul até Tóquio no Japão, sofreu um acidente na aterragem, na pista 34L.
Na aterragem e perante um vento cruzado da direita a atitude do avião foi a suficiente para que um dos seus motores da asa direita embatesse no solo. O avião rolou depois sem mais incidentes até à porta de desembarque.
No avião estavam 168 pessoas que não ganharam para o susto, mas que saíram sem problemas. A pista esteve encerrada 20 minutos para inspecção, que revelaram marcas distintas do embate do motor no asfalto.
Depois de verificado também o motor do avião, a equipa de manutenção  da Korean Air deu o ok para que o avião fizesse o voo de regresso que acabou por ser realizado com uma hora de atraso.

O metar na altura do acidente:

RJAA 210230Z 03020KT 360V070 8000 -DZ FEW010 BKN015 BKN025 18/16 Q1005 TEMPO 04020G32KT 4000 -RA BR RMK 2ST010 5ST015 7SC025 A2968 
RJAA 210213Z 02019KT 6000 -DZ BR BKN010 BKN020 18/16 Q1005 RMK 6ST010 7SC020 A2968

 

Fonte e Foto : Avherald

 

aviador_newsavia

Compartilhar publicação:

REGISTE-SE

spot_img

Popular

spot_img

Mais como isso
Relacionado

Mais passageiros transportados interilhas em Cabo Verde em março e abril deste ano

Os dois aviões fretados pela TACV, companhia aérea estatal...

Presidente da TAP defende que o Estado Português não deve privatizar totalmente a empresa

O presidente da TAP, Luís Rodrigues, defendeu que o...